PWSweather.com
Personal Weather Stations
Station Observations
KOMOKA
Komoka Village, Komoka, ON N0L IRO

Komoka VillageKomoka, ON N0L IRO

Lat: 42.9542444, Lon: -81.4348861

Elevation: 805

Station Type: Davis Vantage Pro 2

Latest ConditionsUpdated 5:29:16 AM EST Wednesday, Feb 20, 2019
Currently Today's Max Today's Min Today's Average
Temperature 16.9°F-8.4°C 16.9°F-8.4°C 7.3°F-13.7°C 11.3°F-11.5°C
Dew Point 11.7°F-11.3°C 11.7°F-11.3°C 2.3°F-16.5°C 6.1°F-14.4°C
Winds 1.0 mph W1.6 kmh W 3.0 mph -4.8 kmh - - 1.0 mph 1.6 kmh
Wind Gusts 4.0 mph6.4 kmh 4.0 mph6.4 kmh - -
Humidity 80% 80% 78% 79%
Pressure 30.44 in1030.8 mb 30.57 in1035.2 mb 30.44 in1030.8 mb -
Hour Temp Dew Point Humidity Winds Wind Gusts Pressure Precip Precip Rate Daily Precip Total
05:29 AM 16.9°F-8.4°C 11.7°F-11.3°C 80% 1.0 mph W1.6 kmh W 4.0 mph6.4 kmh 30.44 in1030.8 mb 0.00 in0.0 mm 0.00 in0.0 mm 0.00 in0.0 mm
05:22 AM 15.8°F-9.0°C 10.8°F-11.8°C 80% 1.0 mph W1.6 kmh W 4.0 mph6.4 kmh 30.44 in1030.8 mb 0.00 in0.0 mm 0.00 in0.0 mm 0.00 in0.0 mm
05:15 AM 15.4°F-9.2°C 10.4°F-12.0°C 80% Calm Calm -- 30.45 in1031.2 mb 0.00 in0.0 mm 0.00 in0.0 mm 0.00 in0.0 mm
05:08 AM 15.3°F-9.3°C 10.2°F-12.1°C 80% Calm Calm -- 30.45 in1031.2 mb 0.00 in0.0 mm 0.00 in0.0 mm 0.00 in0.0 mm
05:01 AM 14.7°F-9.6°C 9.7°F-12.4°C 80% Calm Calm -- 30.45 in1031.2 mb 0.00 in0.0 mm 0.00 in0.0 mm 0.00 in0.0 mm
04:54 AM 14.4°F-9.8°C 9.3°F-12.6°C 80% Calm Calm 1.0 mph1.6 kmh 30.45 in1031.2 mb 0.00 in0.0 mm 0.00 in0.0 mm 0.00 in0.0 mm
04:47 AM 14.0°F-10.0°C 9.0°F-12.8°C 80% Calm Calm 1.0 mph1.6 kmh 30.45 in1031.2 mb 0.00 in0.0 mm 0.00 in0.0 mm 0.00 in0.0 mm
04:40 AM 13.6°F-10.2°C 8.6°F-13.0°C 80% 1.0 mph W1.6 kmh W 3.0 mph4.8 kmh 30.45 in1031.2 mb 0.00 in0.0 mm 0.00 in0.0 mm 0.00 in0.0 mm
04:33 AM 13.3°F-10.4°C 8.2°F-13.2°C 80% 1.0 mph W1.6 kmh W 3.0 mph4.8 kmh 30.45 in1031.2 mb 0.00 in0.0 mm 0.00 in0.0 mm 0.00 in0.0 mm
04:26 AM 13.1°F-10.5°C 8.1°F-13.3°C 80% 1.0 mph W1.6 kmh W 3.0 mph4.8 kmh 30.47 in1031.8 mb 0.00 in0.0 mm 0.00 in0.0 mm 0.00 in0.0 mm
04:19 AM 12.9°F-10.6°C 8.1°F-13.3°C 80% 1.0 mph W1.6 kmh W 3.0 mph4.8 kmh 30.48 in1032.2 mb 0.00 in0.0 mm 0.00 in0.0 mm 0.00 in0.0 mm
04:12 AM 12.7°F-10.7°C 7.5°F-13.6°C 79% Calm Calm 1.0 mph1.6 kmh 30.49 in1032.5 mb 0.00 in0.0 mm 0.00 in0.0 mm 0.00 in0.0 mm
04:05 AM 12.6°F-10.8°C 7.5°F-13.6°C 80% Calm Calm 1.0 mph1.6 kmh 30.49 in1032.5 mb 0.00 in0.0 mm 0.00 in0.0 mm 0.00 in0.0 mm
03:58 AM 12.4°F-10.9°C 7.3°F-13.7°C 80% Calm Calm 3.0 mph4.8 kmh 30.49 in1032.5 mb 0.00 in0.0 mm 0.00 in0.0 mm 0.00 in0.0 mm
03:53 AM 12.0°F-11.1°C 7.2°F-13.8°C 80% 1.0 mph W1.6 kmh W 3.0 mph4.8 kmh 30.48 in1032.2 mb 0.00 in0.0 mm 0.00 in0.0 mm 0.00 in0.0 mm
03:44 AM 11.8°F-11.2°C 6.6°F-14.1°C 79% Calm Calm 1.0 mph1.6 kmh 30.49 in1032.5 mb 0.00 in0.0 mm 0.00 in0.0 mm 0.00 in0.0 mm
03:37 AM 11.8°F-11.2°C 6.6°F-14.1°C 79% Calm Calm 1.0 mph1.6 kmh 30.50 in1032.8 mb 0.00 in0.0 mm 0.00 in0.0 mm 0.00 in0.0 mm
03:30 AM 11.8°F-11.2°C 6.6°F-14.1°C 79% Calm Calm 3.0 mph4.8 kmh 30.51 in1033.2 mb 0.00 in0.0 mm 0.00 in0.0 mm 0.00 in0.0 mm
03:23 AM 11.7°F-11.3°C 6.4°F-14.2°C 79% Calm Calm 1.0 mph1.6 kmh 30.51 in1033.2 mb 0.00 in0.0 mm 0.00 in0.0 mm 0.00 in0.0 mm
03:16 AM 11.7°F-11.3°C 6.3°F-14.3°C 79% Calm Calm 1.0 mph1.6 kmh 30.51 in1033.2 mb 0.00 in0.0 mm 0.00 in0.0 mm 0.00 in0.0 mm
03:09 AM 11.7°F-11.3°C 6.3°F-14.3°C 79% Calm Calm 1.0 mph1.6 kmh 30.52 in1033.5 mb 0.00 in0.0 mm 0.00 in0.0 mm 0.00 in0.0 mm
03:02 AM 11.5°F-11.4°C 6.1°F-14.4°C 79% Calm Calm 1.0 mph1.6 kmh 30.52 in1033.5 mb 0.00 in0.0 mm 0.00 in0.0 mm 0.00 in0.0 mm
02:55 AM 11.3°F-11.5°C 6.1°F-14.4°C 79% Calm Calm 1.0 mph1.6 kmh 30.52 in1033.5 mb 0.00 in0.0 mm 0.00 in0.0 mm 0.00 in0.0 mm
02:48 AM 11.3°F-11.5°C 6.1°F-14.4°C 79% Calm Calm 1.0 mph1.6 kmh 30.52 in1033.5 mb 0.00 in0.0 mm 0.00 in0.0 mm 0.00 in0.0 mm
02:41 AM 11.1°F-11.6°C 5.9°F-14.5°C 79% 1.0 mph W1.6 kmh W 3.0 mph4.8 kmh 30.52 in1033.5 mb 0.00 in0.0 mm 0.00 in0.0 mm 0.00 in0.0 mm
02:34 AM 10.9°F-11.7°C 5.7°F-14.6°C 79% 1.0 mph W1.6 kmh W 3.0 mph4.8 kmh 30.52 in1033.5 mb 0.00 in0.0 mm 0.00 in0.0 mm 0.00 in0.0 mm
02:27 AM 10.8°F-11.8°C 5.5°F-14.7°C 79% 1.0 mph W1.6 kmh W 3.0 mph4.8 kmh 30.52 in1033.5 mb 0.00 in0.0 mm 0.00 in0.0 mm 0.00 in0.0 mm
02:20 AM 10.8°F-11.8°C 5.5°F-14.7°C 79% 1.0 mph W1.6 kmh W 3.0 mph4.8 kmh 30.53 in1033.9 mb 0.00 in0.0 mm 0.00 in0.0 mm 0.00 in0.0 mm
02:13 AM 10.8°F-11.8°C 5.5°F-14.7°C 79% 1.0 mph W1.6 kmh W 1.0 mph1.6 kmh 30.53 in1033.9 mb 0.00 in0.0 mm 0.00 in0.0 mm 0.00 in0.0 mm
02:06 AM 10.8°F-11.8°C 5.5°F-14.7°C 79% 1.0 mph W1.6 kmh W 3.0 mph4.8 kmh 30.53 in1033.9 mb 0.00 in0.0 mm 0.00 in0.0 mm 0.00 in0.0 mm
01:59 AM 10.8°F-11.8°C 5.5°F-14.7°C 79% Calm Calm 1.0 mph1.6 kmh 30.54 in1034.2 mb 0.00 in0.0 mm 0.00 in0.0 mm 0.00 in0.0 mm
01:52 AM 10.9°F-11.7°C 5.7°F-14.6°C 79% Calm Calm 3.0 mph4.8 kmh 30.54 in1034.2 mb 0.00 in0.0 mm 0.00 in0.0 mm 0.00 in0.0 mm
01:45 AM 10.8°F-11.8°C 5.5°F-14.7°C 79% 1.0 mph W1.6 kmh W 3.0 mph4.8 kmh 30.54 in1034.2 mb 0.00 in0.0 mm 0.00 in0.0 mm 0.00 in0.0 mm
01:38 AM 10.4°F-12.0°C 5.2°F-14.9°C 79% 3.0 mph W4.8 kmh W 3.0 mph4.8 kmh 30.53 in1033.9 mb 0.00 in0.0 mm 0.00 in0.0 mm 0.00 in0.0 mm
01:31 AM 10.2°F-12.1°C 5.0°F-15.0°C 79% 3.0 mph W4.8 kmh W 4.0 mph6.4 kmh 30.53 in1033.9 mb 0.00 in0.0 mm 0.00 in0.0 mm 0.00 in0.0 mm
01:24 AM 9.9°F-12.3°C 4.6°F-15.2°C 79% 3.0 mph W4.8 kmh W 4.0 mph6.4 kmh 30.53 in1033.9 mb 0.00 in0.0 mm 0.00 in0.0 mm 0.00 in0.0 mm
01:17 AM 9.5°F-12.5°C 4.3°F-15.4°C 79% 3.0 mph W4.8 kmh W 4.0 mph6.4 kmh 30.53 in1033.9 mb 0.00 in0.0 mm 0.00 in0.0 mm 0.00 in0.0 mm
01:10 AM 9.1°F-12.7°C 3.9°F-15.6°C 79% 3.0 mph W4.8 kmh W 4.0 mph6.4 kmh 30.54 in1034.2 mb 0.00 in0.0 mm 0.00 in0.0 mm 0.00 in0.0 mm
01:03 AM 9.0°F-12.8°C 3.7°F-15.7°C 79% 3.0 mph W4.8 kmh W 3.0 mph4.8 kmh 30.54 in1034.2 mb 0.00 in0.0 mm 0.00 in0.0 mm 0.00 in0.0 mm
12:56 AM 9.0°F-12.8°C 3.7°F-15.7°C 79% 3.0 mph W4.8 kmh W 4.0 mph6.4 kmh 30.55 in1034.5 mb 0.00 in0.0 mm 0.00 in0.0 mm 0.00 in0.0 mm
12:49 AM 8.6°F-13.0°C 3.4°F-15.9°C 79% 3.0 mph W4.8 kmh W 4.0 mph6.4 kmh 30.55 in1034.5 mb 0.00 in0.0 mm 0.00 in0.0 mm 0.00 in0.0 mm
12:42 AM 8.4°F-13.1°C 3.2°F-16.0°C 79% 3.0 mph W4.8 kmh W 3.0 mph4.8 kmh 30.55 in1034.5 mb 0.00 in0.0 mm 0.00 in0.0 mm 0.00 in0.0 mm
12:35 AM 8.1°F-13.3°C 2.8°F-16.2°C 79% 1.0 mph W1.6 kmh W 3.0 mph4.8 kmh 30.55 in1034.5 mb 0.00 in0.0 mm 0.00 in0.0 mm 0.00 in0.0 mm
12:28 AM 7.9°F-13.4°C 2.3°F-16.5°C 78% 3.0 mph W4.8 kmh W 3.0 mph4.8 kmh 30.56 in1034.9 mb 0.00 in0.0 mm 0.00 in0.0 mm 0.00 in0.0 mm
12:21 AM 7.7°F-13.5°C 2.5°F-16.4°C 79% 1.0 mph W1.6 kmh W 3.0 mph4.8 kmh 30.56 in1034.9 mb 0.00 in0.0 mm 0.00 in0.0 mm 0.00 in0.0 mm
12:14 AM 7.9°F-13.4°C 2.3°F-16.5°C 78% 1.0 mph W1.6 kmh W 3.0 mph4.8 kmh 30.56 in1034.9 mb 0.00 in0.0 mm 0.00 in0.0 mm 0.00 in0.0 mm
12:07 AM 7.5°F-13.6°C 2.3°F-16.5°C 79% Calm Calm 1.0 mph1.6 kmh 30.57 in1035.2 mb 0.00 in0.0 mm 0.00 in0.0 mm 0.00 in0.0 mm
12:00 AM 7.3°F-13.7°C 2.3°F-16.5°C 79% Calm Calm 1.0 mph1.6 kmh 30.57 in1035.2 mb 0.00 in0.0 mm 0.00 in0.0 mm 0.00 in0.0 mm